Time;durP1;ratioP1;P1;durP2;ratioP2;P2;SDS_P1;SDS_P2;PMS_P1;PMS_P2;Temp;Humidity;BMP_temperature;BMP_pressure;BME280_temperature;BME280_humidity;BME280_pressure;Samples;Min_cycle;Max_cycle;Signal;HPM_P1;HPM_P2
2021/05/28 00:00:19;;;;;;;27.30;18.85;;;19.90;99.00;;;;;;5053905;28;20104;-73
2021/05/28 00:02:45;;;;;;;22.63;18.45;;;19.80;99.00;;;;;;5054222;28;20055;-73
2021/05/28 00:05:11;;;;;;;22.13;18.10;;;19.80;98.90;;;;;;5054248;28;20057;-73
2021/05/28 00:07:37;;;;;;;24.05;18.55;;;19.80;99.00;;;;;;5052810;28;20398;-73
2021/05/28 00:10:04;;;;;;;20.52;18.33;;;19.80;99.10;;;;;;5054029;28;20100;-73
2021/05/28 00:12:30;;;;;;;26.73;17.92;;;19.80;99.10;;;;;;5053988;28;20529;-72
2021/05/28 00:14:56;;;;;;;22.65;17.35;;;19.80;99.10;;;;;;5052755;28;20032;-73
2021/05/28 00:17:22;;;;;;;22.23;17.58;;;19.80;99.20;;;;;;5053983;28;20033;-74
2021/05/28 00:19:48;;;;;;;24.98;18.92;;;19.80;99.10;;;;;;5054024;28;20380;-73
2021/05/28 00:22:14;;;;;;;21.35;18.25;;;19.70;99.00;;;;;;5053703;28;20021;-72
2021/05/28 00:24:39;;;;;;;22.40;19.85;;;19.80;99.00;;;;;;5053852;28;20380;-72
2021/05/28 00:27:06;;;;;;;23.30;19.08;;;19.80;99.00;;;;;;5053487;28;20029;-73
2021/05/28 00:29:32;;;;;;;22.52;18.77;;;19.70;98.90;;;;;;5053584;28;20033;-72
2021/05/28 00:31:57;;;;;;;26.25;17.85;;;19.70;99.00;;;;;;5054110;28;20025;-73
2021/05/28 00:34:23;;;;;;;22.08;18.00;;;19.70;99.00;;;;;;5053855;28;20021;-72
2021/05/28 00:36:49;;;;;;;24.35;18.13;;;19.70;99.20;;;;;;5053879;28;20028;-73
2021/05/28 00:39:15;;;;;;;24.73;18.98;;;19.70;99.30;;;;;;5053884;28;20079;-73
2021/05/28 00:41:41;;;;;;;22.80;19.92;;;19.70;99.40;;;;;;5053630;28;20391;-73
2021/05/28 00:44:06;;;;;;;22.70;19.52;;;19.60;99.30;;;;;;5052191;28;20032;-72
2021/05/28 00:46:32;;;;;;;23.80;18.02;;;19.60;99.30;;;;;;5053446;28;20029;-72
2021/05/28 00:48:58;;;;;;;22.20;19.02;;;19.60;99.40;;;;;;5053188;28;20519;-73
2021/05/28 00:51:24;;;;;;;26.77;20.48;;;19.60;99.50;;;;;;5053250;28;20376;-73
2021/05/28 00:53:51;;;;;;;25.17;19.80;;;19.60;99.50;;;;;;5053253;28;20029;-72
2021/05/28 00:56:18;;;;;;;26.35;20.25;;;19.60;99.40;;;;;;5053093;28;20383;-73
2021/05/28 00:58:45;;;;;;;24.63;19.67;;;19.70;99.50;;;;;;5051740;28;20368;-72
2021/05/28 01:01:10;;;;;;;24.98;17.70;;;19.60;99.40;;;;;;5052965;28;20021;-73
2021/05/28 01:03:36;;;;;;;22.13;17.25;;;19.60;99.40;;;;;;5052913;28;20100;-73
2021/05/28 01:06:02;;;;;;;19.63;16.98;;;19.60;99.40;;;;;;5051764;28;20376;-71
2021/05/28 01:08:30;;;;;;;19.48;16.58;;;19.60;99.60;;;;;;5052980;28;20024;-72
2021/05/28 01:10:56;;;;;;;23.50;16.98;;;19.60;99.30;;;;;;5052813;28;20100;-72
2021/05/28 01:13:21;;;;;;;20.10;16.55;;;19.60;99.30;;;;;;5052043;28;20105;-73
2021/05/28 01:15:47;;;;;;;20.85;16.52;;;19.50;99.30;;;;;;5052754;28;20045;-72
2021/05/28 01:18:13;;;;;;;21.13;15.55;;;19.50;99.40;;;;;;5052759;28;20029;-73
2021/05/28 01:20:38;;;;;;;28.05;23.38;;;19.50;99.40;;;;;;5052666;28;20075;-73
2021/05/28 01:23:05;;;;;;;19.27;16.13;;;19.40;99.50;;;;;;5052661;28;20039;-73
2021/05/28 01:25:32;;;;;;;17.50;15.73;;;19.40;99.50;;;;;;5051316;28;20033;-72
2021/05/28 01:27:58;;;;;;;21.67;17.23;;;19.40;99.50;;;;;;5051231;28;20052;-72
2021/05/28 01:30:25;;;;;;;31.77;23.67;;;19.40;99.50;;;;;;5052391;28;20021;-72
2021/05/28 01:32:51;;;;;;;29.55;21.10;;;19.40;99.60;;;;;;5052560;28;20025;-72
2021/05/28 01:35:17;;;;;;;23.67;18.08;;;19.40;99.60;;;;;;5052589;28;20139;-72
2021/05/28 01:37:43;;;;;;;20.40;18.00;;;19.30;99.80;;;;;;5052370;28;20387;-72
2021/05/28 01:40:11;;;;;;;17.88;15.77;;;19.30;99.80;;;;;;5052548;28;20025;-73
2021/05/28 01:42:37;;;;;;;17.30;14.48;;;19.30;99.90;;;;;;5052356;28;20021;-72
2021/05/28 01:45:07;;;;;;;17.63;15.32;;;19.30;99.90;;;;;;5052472;28;20735;-72
2021/05/28 01:47:33;;;;;;;23.55;16.10;;;19.40;99.90;;;;;;5052427;28;20507;-73
2021/05/28 01:49:58;;;;;;;21.45;16.15;;;19.40;99.90;;;;;;5052251;28;20032;-73
2021/05/28 01:52:25;;;;;;;19.63;15.65;;;19.40;99.90;;;;;;5052341;28;20032;-73
2021/05/28 01:54:51;;;;;;;16.23;14.60;;;19.40;99.90;;;;;;5052282;28;20090;-73
2021/05/28 01:57:18;;;;;;;18.40;15.75;;;19.40;99.90;;;;;;5052231;28;20055;-73
2021/05/28 01:59:45;;;;;;;16.45;14.57;;;19.40;99.90;;;;;;5052184;28;20478;-73
2021/05/28 02:02:12;;;;;;;19.27;15.77;;;19.50;99.90;;;;;;5052042;28;20025;-73
2021/05/28 02:04:38;;;;;;;21.77;17.40;;;19.50;99.90;;;;;;5052070;28;20025;-73
2021/05/28 02:07:04;;;;;;;19.90;17.25;;;19.50;99.90;;;;;;5050521;28;20031;-73
2021/05/28 02:09:30;;;;;;;20.52;16.85;;;19.50;99.90;;;;;;5051617;28;20027;-73
2021/05/28 02:11:57;;;;;;;18.30;15.20;;;19.50;99.90;;;;;;5051907;28;20535;-73
2021/05/28 02:14:27;;;;;;;20.85;14.68;;;19.50;99.90;;;;;;5051722;28;20033;-73
2021/05/28 02:16:53;;;;;;;21.63;15.40;;;19.50;99.90;;;;;;5051909;28;20032;-73
2021/05/28 02:19:20;;;;;;;17.63;14.93;;;19.60;99.90;;;;;;5051853;28;20074;-73
2021/05/28 02:21:47;;;;;;;21.73;14.75;;;19.60;99.90;;;;;;5051796;28;20113;-73
2021/05/28 02:24:14;;;;;;;17.02;14.55;;;19.60;99.90;;;;;;5051454;28;20052;-73
2021/05/28 02:26:43;;;;;;;22.42;16.15;;;19.80;99.90;;;;;;5051782;28;20130;-73
2021/05/28 02:29:08;;;;;;;22.75;19.63;;;20.00;99.90;;;;;;5050405;28;20049;-74
2021/05/28 02:31:34;;;;;;;19.70;17.75;;;20.30;99.90;;;;;;5050395;28;20108;-73
2021/05/28 02:34:00;;;;;;;20.52;17.48;;;20.50;99.90;;;;;;5051666;28;20021;-73
2021/05/28 02:36:25;;;;;;;18.90;15.38;;;20.80;99.90;;;;;;5051680;28;20021;-73
2021/05/28 02:38:51;;;;;;;19.77;15.20;;;21.10;99.90;;;;;;5051536;28;20025;-73
2021/05/28 02:41:17;;;;;;;19.60;15.60;;;21.30;99.20;;;;;;5051823;28;20083;-72
2021/05/28 02:43:42;;;;;;;18.70;14.13;;;21.40;98.00;;;;;;5051548;28;20360;-72
2021/05/28 02:46:08;;;;;;;17.08;13.20;;;21.50;97.90;;;;;;5053351;28;20021;-83
2021/05/28 02:48:34;;;;;;;16.35;12.57;;;21.80;98.20;;;;;;5052052;28;20075;-83
2021/05/28 02:50:59;;;;;;;16.90;12.40;;;22.10;97.70;;;;;;5053688;28;20025;-83
2021/05/28 02:53:27;;;;;;;13.57;11.93;;;22.40;96.80;;;;;;5053040;28;20051;-83
2021/05/28 02:55:52;;;;;;;15.15;13.63;;;22.70;96.10;;;;;;5061090;28;20052;-83
2021/05/28 02:58:18;;;;;;;13.23;11.82;;;23.10;95.60;;;;;;5073852;28;20029;-84
2021/05/28 03:00:44;;;;;;;14.05;11.93;;;23.70;94.70;;;;;;5055296;28;20040;-84
2021/05/28 03:03:09;;;;;;;15.15;12.07;;;24.20;93.70;;;;;;5053398;28;20033;-84
2021/05/28 03:05:35;;;;;;;13.40;12.07;;;24.90;92.40;;;;;;5053641;28;20348;-84
2021/05/28 03:08:01;;;;;;;15.32;10.63;;;25.50;90.90;;;;;;5053862;28;20036;-84
2021/05/28 03:10:26;;;;;;;12.25;11.05;;;26.00;89.10;;;;;;5057559;28;20645;-83
2021/05/28 03:12:52;;;;;;;12.25;11.05;;;26.60;86.50;;;;;;5065815;28;20028;-83
2021/05/28 03:15:18;;;;;;;11.98;10.77;;;27.20;84.20;;;;;;5053378;28;20025;-82
2021/05/28 03:17:45;;;;;;;13.50;12.10;;;27.60;81.40;;;;;;5053508;28;20050;-83
2021/05/28 03:20:19;;;;;;;12.73;10.88;;;27.70;78.90;;;;;;5052972;28;20036;-83
2021/05/28 03:22:45;;;;;;;11.73;10.55;;;27.80;77.60;;;;;;5052812;28;20036;-83
2021/05/28 03:25:12;;;;;;;17.45;12.00;;;27.80;77.00;;;;;;5053143;28;20029;-83
2021/05/28 03:27:39;;;;;;;18.55;10.93;;;28.00;76.30;;;;;;5053011;28;20052;-83
2021/05/28 03:30:07;;;;;;;13.82;11.43;;;28.30;75.60;;;;;;5053032;28;20021;-83
2021/05/28 03:32:33;;;;;;;17.02;11.38;;;28.40;74.20;;;;;;5064745;28;20040;-83
2021/05/28 03:34:59;;;;;;;14.38;11.40;;;28.50;73.90;;;;;;5072997;28;20047;-83
2021/05/28 03:37:26;;;;;;;18.08;10.93;;;28.50;73.40;;;;;;5056776;28;20017;-84
2021/05/28 03:39:52;;;;;;;18.25;11.90;;;28.40;72.60;;;;;;5056936;28;20028;-83
2021/05/28 03:42:18;;;;;;;16.40;11.60;;;28.20;72.50;;;;;;5056325;28;20025;-82
2021/05/28 03:44:45;;;;;;;13.85;11.63;;;27.80;72.50;;;;;;5056005;28;20025;-83
2021/05/28 03:47:10;;;;;;;17.95;12.07;;;27.60;72.90;;;;;;5056311;28;20368;-83
2021/05/28 03:49:37;;;;;;;13.77;11.40;;;27.70;74.20;;;;;;5055127;28;20025;-85
2021/05/28 03:52:03;;;;;;;13.63;11.63;;;28.20;74.70;;;;;;5060044;28;20079;-84
2021/05/28 03:54:29;;;;;;;17.17;11.85;;;29.00;73.60;;;;;;5054264;28;20426;-84
2021/05/28 03:56:54;;;;;;;16.67;11.52;;;29.80;72.20;;;;;;5056051;28;20025;-85
2021/05/28 03:59:20;;;;;;;38.53;11.95;;;30.50;70.90;;;;;;5055845;28;20104;-85
2021/05/28 04:01:47;;;;;;;14.85;11.40;;;31.30;69.40;;;;;;5055386;28;20029;-72
2021/05/28 04:04:13;;;;;;;13.60;12.23;;;32.00;68.00;;;;;;5053801;28;20476;-74
2021/05/28 04:06:38;;;;;;;18.48;13.07;;;32.60;66.30;;;;;;5053872;28;20060;-75
2021/05/28 04:09:04;;;;;;;13.05;10.38;;;33.10;64.80;;;;;;5053793;28;20045;-75
2021/05/28 04:11:30;;;;;;;15.20;10.40;;;33.60;63.50;;;;;;5052776;28;20024;-73
2021/05/28 04:13:56;;;;;;;19.05;10.90;;;34.20;62.20;;;;;;5054000;28;20029;-75
2021/05/28 04:16:21;;;;;;;20.30;10.77;;;34.70;61.30;;;;;;5053702;28;20048;-74
2021/05/28 04:18:47;;;;;;;18.63;16.38;;;35.30;60.40;;;;;;5053503;28;20394;-74
2021/05/28 04:21:13;;;;;;;23.85;13.18;;;35.70;59.20;;;;;;5053628;28;20037;-74
2021/05/28 04:23:39;;;;;;;22.48;10.52;;;36.10;58.20;;;;;;5053375;28;20033;-73
2021/05/28 04:26:05;;;;;;;12.48;8.98;;;36.50;57.50;;;;;;5053446;28;20490;-74
2021/05/28 04:28:30;;;;;;;23.10;9.75;;;36.90;56.90;;;;;;5051967;28;20861;-74
2021/05/28 04:31:03;;;;;;;15.45;8.93;;;37.40;56.00;;;;;;5053626;28;20029;-73
2021/05/28 04:33:28;;;;;;;19.60;8.70;;;37.80;54.90;;;;;;5053485;28;20475;-72
2021/05/28 04:35:54;;;;;;;10.95;7.60;;;38.30;54.60;;;;;;5053408;28;20029;-74
2021/05/28 04:38:21;;;;;;;11.10;9.07;;;38.70;53.60;;;;;;5052996;28;20028;-74
2021/05/28 04:40:48;;;;;;;9.65;8.18;;;39.00;52.50;;;;;;5052997;28;20025;-74
2021/05/28 04:43:14;;;;;;;10.55;9.45;;;39.40;51.30;;;;;;5052814;28;20091;-75
2021/05/28 04:45:40;;;;;;;9.65;6.70;;;39.60;50.90;;;;;;5051931;28;20037;-75
2021/05/28 04:48:06;;;;;;;8.38;6.32;;;39.80;50.20;;;;;;5051676;28;20747;-75
2021/05/28 04:50:32;;;;;;;8.43;6.15;;;39.90;49.70;;;;;;5053083;28;20044;-74
2021/05/28 04:53:00;;;;;;;9.57;7.00;;;40.10;49.80;;;;;;5052831;28;20021;-74
2021/05/28 04:55:26;;;;;;;8.70;6.22;;;39.70;50.20;;;;;;5052992;28;20024;-74
2021/05/28 04:57:53;;;;;;;10.13;6.35;;;38.80;49.80;;;;;;5053081;28;20025;-74
2021/05/28 05:00:20;;;;;;;12.93;6.18;;;38.00;49.90;;;;;;5052774;28;20060;-75
2021/05/28 05:02:46;;;;;;;9.27;5.65;;;37.50;50.00;;;;;;5052739;28;20107;-75
2021/05/28 05:05:13;;;;;;;11.98;6.65;;;37.30;50.70;;;;;;5054593;28;20052;-84
2021/05/28 05:07:39;;;;;;;13.93;6.80;;;37.20;50.90;;;;;;5056549;28;20025;-81
2021/05/28 05:10:05;;;;;;;8.52;6.18;;;37.50;51.40;;;;;;5057667;28;20095;-83
2021/05/28 05:12:31;;;;;;;18.83;6.70;;;38.00;50.90;;;;;;5055436;28;20021;-83
2021/05/28 05:14:56;;;;;;;8.48;5.68;;;37.90;49.90;;;;;;5054578;28;20021;-83
2021/05/28 05:17:22;;;;;;;13.05;5.95;;;37.90;50.20;;;;;;5053386;28;20144;-84
2021/05/28 05:19:48;;;;;;;6.68;5.50;;;38.20;50.60;;;;;;5054453;28;20025;-84
2021/05/28 05:22:13;;;;;;;9.82;5.72;;;38.60;50.20;;;;;;5054666;28;20488;-83
2021/05/28 05:24:39;;;;;;;17.05;7.57;;;39.10;49.60;;;;;;5062023;28;20029;-81
2021/05/28 05:27:06;;;;;;;15.25;6.40;;;39.70;49.20;;;;;;5061494;28;20021;-83
2021/05/28 05:29:31;;;;;;;16.60;7.55;;;39.90;48.00;;;;;;5053633;28;20033;-81
2021/05/28 05:31:58;;;;;;;8.70;5.30;;;40.10;47.60;;;;;;5053156;28;20025;-81
2021/05/28 05:34:23;;;;;;;7.57;5.90;;;40.30;47.20;;;;;;5052717;28;20497;-81
2021/05/28 05:36:49;;;;;;;7.78;5.22;;;40.30;46.70;;;;;;5053613;28;20104;-80
2021/05/28 05:39:15;;;;;;;8.38;5.70;;;40.40;46.70;;;;;;5052641;28;20490;-81
2021/05/28 05:41:41;;;;;;;8.30;5.72;;;40.60;46.60;;;;;;5052705;28;20388;-81
2021/05/28 05:44:07;;;;;;;8.85;5.97;;;40.80;46.10;;;;;;5052805;28;20771;-81
2021/05/28 05:46:32;;;;;;;9.68;5.88;;;41.20;45.60;;;;;;5052521;28;20745;-81
2021/05/28 05:48:58;;;;;;;11.15;5.32;;;41.60;44.70;;;;;;5052133;28;20057;-81
2021/05/28 05:51:24;;;;;;;13.77;6.57;;;41.90;43.40;;;;;;5053024;28;20092;-82
2021/05/28 05:53:50;;;;;;;9.88;6.68;;;42.20;41.50;;;;;;5052030;28;20109;-81
2021/05/28 05:56:16;;;;;;;9.02;5.90;;;42.70;40.30;;;;;;5052502;28;20374;-81
2021/05/28 05:58:42;;;;;;;5.30;4.80;;;43.10;39.50;;;;;;5051884;28;20037;-80
2021/05/28 06:01:09;;;;;;;9.57;5.07;;;43.40;38.50;;;;;;5051769;28;20021;-81
2021/05/28 06:03:34;;;;;;;7.43;4.80;;;43.70;37.90;;;;;;5054912;28;20029;-80
2021/05/28 06:06:00;;;;;;;6.75;4.50;;;43.90;37.80;;;;;;5058601;28;20049;-80
2021/05/28 06:08:26;;;;;;;18.02;6.35;;;44.00;37.20;;;;;;5052478;28;20052;-79
2021/05/28 06:10:52;;;;;;;7.22;5.10;;;44.20;37.00;;;;;;5052686;28;20021;-81
2021/05/28 06:13:18;;;;;;;18.15;6.40;;;44.40;36.70;;;;;;5052619;28;20025;-82
2021/05/28 06:15:44;;;;;;;23.25;5.75;;;44.60;36.40;;;;;;5051696;28;20043;-82
2021/05/28 06:18:10;;;;;;;5.90;4.05;;;44.60;36.30;;;;;;5052334;28;20028;-82
2021/05/28 06:20:35;;;;;;;9.82;4.43;;;44.80;36.30;;;;;;5053284;28;20025;-81
2021/05/28 06:23:01;;;;;;;10.07;5.22;;;45.00;35.60;;;;;;5054517;28;20025;-83
2021/05/28 06:25:28;;;;;;;5.90;4.40;;;45.10;35.60;;;;;;5052225;28;20459;-82
2021/05/28 06:27:53;;;;;;;6.78;4.97;;;45.40;35.30;;;;;;5051796;28;20118;-82
2021/05/28 06:30:19;;;;;;;10.90;7.20;;;45.40;35.10;;;;;;5052216;28;20028;-82
2021/05/28 06:32:45;;;;;;;8.85;6.13;;;45.20;34.90;;;;;;5052409;28;20025;-81
2021/05/28 06:35:11;;;;;;;14.23;5.03;;;45.00;34.50;;;;;;5052127;28;20021;-81
2021/05/28 06:37:37;;;;;;;6.22;4.15;;;44.10;34.60;;;;;;5052362;28;20490;-81
2021/05/28 06:40:05;;;;;;;11.43;6.20;;;43.10;34.90;;;;;;5054626;28;20025;-80
2021/05/28 06:42:31;;;;;;;10.48;4.40;;;42.20;35.80;;;;;;5056557;28;20021;-81
2021/05/28 06:44:57;;;;;;;7.57;4.10;;;41.30;35.80;;;;;;5055834;28;20092;-79
2021/05/28 06:47:25;;;;;;;7.80;4.35;;;40.50;36.40;;;;;;5052347;28;20535;-83
2021/05/28 06:49:51;;;;;;;6.53;3.80;;;40.00;37.10;;;;;;5051513;28;20108;-82
2021/05/28 06:52:17;;;;;;;6.07;3.70;;;39.90;37.80;;;;;;5050232;28;20051;-83
2021/05/28 06:54:42;;;;;;;5.68;3.60;;;40.10;37.90;;;;;;5051287;28;20021;-80
2021/05/28 06:57:08;;;;;;;7.72;4.20;;;40.50;37.50;;;;;;5050784;28;20017;-85
2021/05/28 06:59:34;;;;;;;6.40;4.10;;;40.70;37.40;;;;;;5050788;28;20056;-84
2021/05/28 07:02:00;;;;;;;5.55;4.10;;;41.00;37.30;;;;;;5051240;28;20096;-87
2021/05/28 07:04:25;;;;;;;8.05;4.55;;;41.30;37.00;;;;;;5050896;28;20533;-86
2021/05/28 07:06:51;;;;;;;8.82;4.40;;;41.50;36.90;;;;;;5052398;28;20593;-83
2021/05/28 07:09:17;;;;;;;11.60;6.28;;;41.70;36.50;;;;;;5052112;28;20482;-84
2021/05/28 07:11:43;;;;;;;13.38;5.78;;;42.00;35.90;;;;;;5055142;28;20028;-81
2021/05/28 07:14:08;;;;;;;7.55;4.03;;;42.20;35.80;;;;;;5055807;28;20098;-84
2021/05/28 07:16:34;;;;;;;8.70;6.35;;;42.30;35.80;;;;;;5055671;28;20317;-83
2021/05/28 07:19:00;;;;;;;10.30;4.22;;;42.40;35.30;;;;;;5066575;28;20024;-82
2021/05/28 07:21:26;;;;;;;7.00;4.05;;;42.40;35.00;;;;;;5063793;28;20423;-82
2021/05/28 07:23:52;;;;;;;4.20;3.58;;;42.50;35.00;;;;;;5056256;28;20025;-84
2021/05/28 07:26:18;;;;;;;5.80;3.50;;;42.40;34.50;;;;;;5055283;28;20033;-83
2021/05/28 07:28:44;;;;;;;8.10;3.65;;;42.30;34.20;;;;;;5054296;28;20053;-85
2021/05/28 07:31:10;;;;;;;6.57;2.97;;;42.20;34.30;;;;;;5054992;28;20035;-84
2021/05/28 07:33:37;;;;;;;4.93;3.50;;;42.00;33.30;;;;;;5054968;28;20467;-86
2021/05/28 07:36:04;;;;;;;18.48;4.38;;;41.80;33.20;;;;;;5054333;28;20017;-85
2021/05/28 07:38:30;;;;;;;14.75;6.40;;;41.70;33.50;;;;;;5055285;28;20035;-85
2021/05/28 07:40:58;;;;;;;5.13;3.72;;;41.50;34.00;;;;;;5054496;28;20096;-89
2021/05/28 07:43:24;;;;;;;7.25;3.00;;;41.40;34.10;;;;;;5052823;28;20041;-85
2021/05/28 07:45:51;;;;;;;3.75;3.05;;;41.30;33.80;;;;;;5054412;28;20045;-85
2021/05/28 07:48:18;;;;;;;6.93;4.65;;;40.80;33.90;;;;;;5054348;28;20029;-84
2021/05/28 07:50:45;;;;;;;3.90;3.30;;;40.50;34.30;;;;;;5054597;28;20028;-85
2021/05/28 07:53:19;;;;;;;6.15;3.20;;;40.10;34.40;;;;;;5055090;28;20021;-86
2021/05/28 07:55:46;;;;;;;4.75;3.85;;;39.90;34.30;;;;;;5059594;28;20463;-84
2021/05/28 07:58:12;;;;;;;8.82;4.00;;;39.50;34.90;;;;;;5059582;28;20407;-85
2021/05/28 08:00:38;;;;;;;6.05;3.47;;;39.30;35.40;;;;;;5056328;28;20159;-84
2021/05/28 08:03:05;;;;;;;4.68;3.45;;;39.00;35.30;;;;;;5056042;28;20056;-82
2021/05/28 08:05:31;;;;;;;10.85;3.40;;;38.70;35.60;;;;;;5053516;28;20028;-82
2021/05/28 08:07:58;;;;;;;7.47;3.22;;;38.50;36.50;;;;;;5055060;28;20126;-86
2021/05/28 08:10:24;;;;;;;4.88;3.38;;;38.20;36.10;;;;;;5054651;28;20696;-85
2021/05/28 08:12:51;;;;;;;8.80;3.65;;;37.80;36.70;;;;;;5054648;28;20117;-85
2021/05/28 08:15:19;;;;;;;6.72;3.88;;;37.60;36.60;;;;;;5054112;28;20379;-86
2021/05/28 08:17:46;;;;;;;9.13;3.72;;;37.30;37.40;;;;;;5054484;28;20027;-86
2021/05/28 08:20:12;;;;;;;8.85;3.53;;;37.10;37.80;;;;;;5054702;28;20025;-84
2021/05/28 08:22:38;;;;;;;5.10;3.38;;;36.90;38.00;;;;;;5054300;28;20029;-85
2021/05/28 08:25:05;;;;;;;7.85;3.50;;;36.70;37.40;;;;;;5054320;28;20090;-85
2021/05/28 08:27:31;;;;;;;8.55;3.20;;;36.60;37.40;;;;;;5054792;28;20049;-87
2021/05/28 08:29:57;;;;;;;5.18;3.20;;;36.20;37.00;;;;;;5053782;28;20029;-86
2021/05/28 08:32:23;;;;;;;3.85;2.75;;;35.80;37.30;;;;;;5067877;28;20013;-87
2021/05/28 08:34:49;;;;;;;8.05;3.35;;;35.50;37.40;;;;;;5054942;28;20040;-90
2021/05/28 08:37:15;;;;;;;9.60;4.10;;;35.40;37.80;;;;;;5068561;28;20006;-86
2021/05/28 08:39:40;;;;;;;8.43;3.55;;;35.50;38.40;;;;;;5063932;28;20467;-86
2021/05/28 08:42:09;;;;;;;3.45;3.10;;;35.40;39.40;;;;;;5055485;28;20025;-86
2021/05/28 08:44:36;;;;;;;3.50;3.20;;;35.40;38.60;;;;;;5053997;28;20020;-79
2021/05/28 08:47:02;;;;;;;3.80;3.03;;;35.40;38.50;;;;;;5052435;28;20025;-81
2021/05/28 08:49:28;;;;;;;7.10;3.20;;;35.40;38.50;;;;;;5052827;28;20029;-80
2021/05/28 08:51:57;;;;;;;10.50;3.42;;;35.30;38.30;;;;;;5052198;28;20364;-80
2021/05/28 08:54:23;;;;;;;5.72;3.58;;;35.20;38.40;;;;;;5053434;28;20075;-87
2021/05/28 08:56:50;;;;;;;5.40;3.35;;;35.00;38.10;;;;;;5053631;28;20375;-87
2021/05/28 08:59:16;;;;;;;5.20;3.38;;;34.70;38.70;;;;;;5052310;28;20078;-87
2021/05/28 09:01:42;;;;;;;6.55;2.90;;;34.70;39.40;;;;;;5055410;28;20052;-85
2021/05/28 09:04:10;;;;;;;4.10;3.45;;;34.70;38.90;;;;;;5054774;28;20028;-90
2021/05/28 09:06:44;;;;;;;9.23;3.78;;;34.50;38.90;;;;;;5056311;28;20422;-87
2021/05/28 09:09:19;;;;;;;9.25;3.70;;;34.40;39.10;;;;;;5054246;28;20033;-88
2021/05/28 09:12:04;;;;;;;3.95;3.58;;;34.30;39.50;;;;;;5054256;28;20083;-87
2021/05/28 09:14:38;;;;;;;4.15;3.60;;;34.30;39.70;;;;;;5073504;28;20005;-87
2021/05/28 09:17:05;;;;;;;5.65;4.65;;;34.20;40.10;;;;;;5064111;28;20028;-88
2021/05/28 09:19:34;;;;;;;6.03;4.50;;;34.20;40.50;;;;;;5054322;28;20025;-88
2021/05/28 09:22:06;;;;;;;8.25;3.38;;;34.20;40.40;;;;;;5052976;28;20021;-82
2021/05/28 09:24:47;;;;;;;4.60;3.75;;;34.10;40.80;;;;;;5051935;28;20481;-82
2021/05/28 09:27:31;;;;;;;6.70;4.53;;;33.90;40.40;;;;;;5050919;28;20144;-84
2021/05/28 09:30:12;;;;;;;4.40;3.50;;;33.60;40.80;;;;;;5049651;28;20025;-82
2021/05/28 09:32:50;;;;;;;9.32;4.03;;;33.40;41.00;;;;;;5051306;28;20021;-83
2021/05/28 09:35:21;;;;;;;9.18;3.95;;;33.10;41.20;;;;;;5050339;28;20056;-82
2021/05/28 09:37:51;;;;;;;8.38;4.20;;;32.80;41.40;;;;;;5051909;28;20543;-82
2021/05/28 09:40:29;;;;;;;11.52;5.63;;;32.70;42.10;;;;;;5051060;28;20033;-82
2021/05/28 09:42:59;;;;;;;7.85;4.60;;;32.60;43.00;;;;;;5052472;28;20082;-84
2021/05/28 09:45:36;;;;;;;6.78;4.15;;;32.70;43.40;;;;;;5051550;28;20025;-83
2021/05/28 09:48:07;;;;;;;10.35;4.13;;;32.60;42.80;;;;;;5050399;28;20037;-83
2021/05/28 09:50:33;;;;;;;9.43;4.45;;;32.50;43.20;;;;;;5052188;28;20032;-82
2021/05/28 09:53:01;;;;;;;6.65;3.80;;;32.40;43.20;;;;;;5053389;28;20032;-85
2021/05/28 09:55:33;;;;;;;7.43;4.35;;;32.30;43.30;;;;;;5066632;28;20029;-84
2021/05/28 09:57:59;;;;;;;9.80;4.47;;;32.40;43.60;;;;;;5068057;28;20028;-86
2021/05/28 10:00:25;;;;;;;11.75;4.78;;;32.40;43.10;;;;;;5054987;28;20036;-86
2021/05/28 10:03:11;;;;;;;5.55;4.13;;;32.30;43.20;;;;;;5054294;28;20017;-86
2021/05/28 10:05:39;;;;;;;6.88;4.30;;;32.20;43.30;;;;;;5053845;28;20025;-86
2021/05/28 10:08:10;;;;;;;7.65;4.20;;;32.20;43.50;;;;;;5053563;28;20027;-86
2021/05/28 10:10:37;;;;;;;5.00;3.97;;;32.20;43.20;;;;;;5052986;28;20052;-88
2021/05/28 10:13:10;;;;;;;7.55;3.67;;;32.20;42.90;;;;;;5052703;28;20049;-86
2021/05/28 10:15:45;;;;;;;8.68;3.67;;;32.00;42.80;;;;;;5053078;28;20056;-86
2021/05/28 10:18:13;;;;;;;8.27;4.60;;;32.00;43.60;;;;;;5051534;28;20118;-87
2021/05/28 10:20:41;;;;;;;4.47;3.88;;;32.20;44.00;;;;;;5053216;28;20536;-84
2021/05/28 10:23:08;;;;;;;8.13;4.07;;;32.20;43.70;;;;;;5052020;28;20489;-84
2021/05/28 10:25:35;;;;;;;8.85;4.07;;;32.30;43.30;;;;;;5052947;28;20437;-86
2021/05/28 10:28:04;;;;;;;5.68;4.07;;;32.50;43.40;;;;;;5053008;28;20483;-85
2021/05/28 10:30:41;;;;;;;9.63;3.67;;;32.50;42.60;;;;;;5052648;28;20097;-84
2021/05/28 10:33:18;;;;;;;6.85;3.60;;;32.50;41.90;;;;;;5069815;28;20022;-85
2021/05/28 10:35:46;;;;;;;9.35;4.40;;;32.50;41.40;;;;;;5060519;28;20029;-86
2021/05/28 10:38:48;;;;;;;5.85;3.85;;;32.30;41.30;;;;;;5052040;28;20036;-85
2021/05/28 10:41:14;;;;;;;4.70;3.50;;;32.20;42.00;;;;;;5050253;28;20324;-85
2021/05/28 10:43:48;;;;;;;4.10;3.70;;;32.20;41.80;;;;;;5051401;28;20033;-88
2021/05/28 10:46:15;;;;;;;8.88;3.40;;;32.20;40.90;;;;;;5055870;28;20051;-86
2021/05/28 10:48:41;;;;;;;10.15;3.38;;;32.30;40.90;;;;;;5056671;28;20031;-85
2021/05/28 10:51:23;;;;;;;5.07;3.70;;;32.10;40.20;;;;;;5056738;28;20096;-86
2021/05/28 10:53:51;;;;;;;;;;;32.00;40.30;;;;;;5055799;28;20464;-85
2021/05/28 10:56:23;;;;;;;6.80;3.80;;;32.00;40.80;;;;;;5057028;28;20317;-85
2021/05/28 10:58:59;;;;;;;4.22;3.83;;;32.00;41.30;;;;;;5056294;28;20020;-86
2021/05/28 11:01:43;;;;;;;7.68;3.90;;;32.10;40.80;;;;;;5056265;28;20029;-85
2021/05/28 11:04:17;;;;;;;5.72;4.03;;;32.00;40.50;;;;;;5055431;28;20029;-86
2021/05/28 11:07:02;;;;;;;5.75;3.90;;;31.90;40.40;;;;;;5055401;28;20036;-84
2021/05/28 11:09:45;;;;;;;9.80;3.95;;;31.70;40.30;;;;;;5055623;28;20086;-86
2021/05/28 11:12:24;;;;;;;10.80;4.03;;;31.40;40.30;;;;;;5074386;28;20119;-86
2021/05/28 11:15:39;;;;;;;11.35;4.10;;;31.10;40.80;;;;;;5064392;28;20025;-85
2021/05/28 11:18:05;;;;;;;6.32;4.30;;;30.90;41.20;;;;;;5034910;28;20034;-83
2021/05/28 11:20:32;;;;;;;6.90;4.40;;;30.60;41.20;;;;;;5033924;28;20033;-83
2021/05/28 11:23:00;;;;;;;6.85;3.60;;;30.40;41.80;;;;;;5033920;28;20033;-84
2021/05/28 11:25:31;;;;;;;4.90;4.45;;;30.30;42.10;;;;;;5033830;28;20114;-84
2021/05/28 11:28:07;;;;;;;7.45;3.88;;;30.10;42.00;;;;;;5015262;28;20551;-81
2021/05/28 11:30:45;;;;;;;7.93;4.45;;;29.90;42.50;;;;;;5031580;28;20030;-80
2021/05/28 11:33:31;;;;;;;10.57;4.05;;;29.80;43.00;;;;;;5031631;28;20048;-81
2021/05/28 11:35:57;;;;;;;5.57;3.90;;;29.60;43.20;;;;;;5008006;28;20033;-80
2021/05/28 11:38:32;;;;;;;5.45;4.15;;;29.30;43.20;;;;;;5031297;28;20380;-79
2021/05/28 11:40:58;;;;;;;14.90;6.00;;;29.10;43.70;;;;;;5031395;28;20340;-80
2021/05/28 11:43:24;;;;;;;15.18;5.85;;;28.80;44.00;;;;;;5031290;28;20050;-84
2021/05/28 11:45:54;;;;;;;12.88;6.38;;;28.60;44.40;;;;;;5033399;28;20026;-82
2021/05/28 11:48:24;;;;;;;8.38;5.45;;;28.40;44.60;;;;;;5040448;28;20041;-86
2021/05/28 11:50:55;;;;;;;21.02;6.80;;;28.10;44.80;;;;;;5057544;28;20017;-83
2021/05/28 11:53:21;;;;;;;17.73;6.10;;;27.90;45.50;;;;;;5057088;28;20017;-82
2021/05/28 11:55:54;;;;;;;11.85;6.10;;;27.70;47.60;;;;;;5054226;28;20672;-81
2021/05/28 11:58:25;;;;;;;7.50;6.50;;;27.50;49.40;;;;;;5054920;28;20074;-83
2021/05/28 12:00:55;;;;;;;6.35;5.60;;;27.30;50.60;;;;;;5054509;28;20028;-82
2021/05/28 12:03:21;;;;;;;9.43;5.90;;;27.10;51.40;;;;;;5054266;28;20037;-82
2021/05/28 12:05:49;;;;;;;7.35;5.80;;;27.00;52.20;;;;;;5053945;28;20029;-82
2021/05/28 12:08:14;;;;;;;11.60;6.47;;;26.90;53.10;;;;;;5053224;28;20431;-83
2021/05/28 12:10:54;;;;;;;14.10;7.30;;;26.70;53.80;;;;;;5052306;28;20028;-84
2021/05/28 12:13:21;;;;;;;11.88;6.50;;;26.60;54.80;;;;;;5054136;28;20024;-81
2021/05/28 12:15:52;;;;;;;8.80;5.63;;;26.50;55.00;;;;;;5054460;28;20025;-83
2021/05/28 12:18:33;;;;;;;15.55;6.13;;;26.40;55.90;;;;;;5054588;28;20028;-81
2021/05/28 12:21:07;;;;;;;10.13;5.85;;;26.50;56.10;;;;;;5053178;28;20479;-80
2021/05/28 12:23:45;;;;;;;8.85;5.50;;;26.50;56.40;;;;;;5053834;28;20032;-77
2021/05/28 12:26:13;;;;;;;8.20;5.18;;;26.60;56.50;;;;;;5053676;28;20052;-77
2021/05/28 12:28:56;;;;;;;10.23;5.88;;;26.70;56.60;;;;;;5052829;28;20053;-78
2021/05/28 12:31:33;;;;;;;13.55;5.85;;;26.80;57.00;;;;;;5053456;28;20017;-78
2021/05/28 12:34:07;;;;;;;13.80;8.30;;;27.00;56.80;;;;;;5052968;28;20024;-78
2021/05/28 12:36:35;;;;;;;17.15;10.27;;;27.30;56.70;;;;;;5053218;28;20028;-79
2021/05/28 12:39:06;;;;;;;15.90;9.43;;;27.60;56.10;;;;;;5053314;28;20086;-79
2021/05/28 12:41:33;;;;;;;13.98;9.75;;;27.90;56.30;;;;;;5053249;28;20101;-79